Chesapeake, VA

03:51 AM EST on Febrero 27, 2017 (GMT -0500)
City Hall | | Change Station

Elev 20 ft 36.72 °N, 76.25 °W | Updated 1 minute ago

Clear
Clear
38.6 °F
Feels Like 39 °F
N
0.0
Hangin Variable Hangin from SSE
Gusts 0.0 mph

Ngayon
High -- | Low -- °F
--% Chance of Precip.
Yesterday
High -- | Low -- °F
Precip. -- sa
Pwersa 30.37 sa
Paningin 10.0 milya
Mga Ulap Clear
Windchill 39 °F
Hamog 36 °F
Humidito 92%
Rainfall 0.00 sa
Snow Depth Not available.
6:38 AM 5:57 PM
Bagong Buwan, 1% visible
METAR KCPK 270835Z AUTO 00000KT 10SM CLR 00/M01 A3037 RMK AO2 T00001006
Pwersa 30.37 sa
Paningin 10.0 milya
Mga Ulap Clear
Windchill 39 °F
Hamog 36 °F
Humidito 92%
Rainfall 0.00 sa
Snow Depth Not available.
6:38 AM 5:57 PM
Bagong Buwan, 1% visible
METAR KCPK 270835Z AUTO 00000KT 10SM CLR 00/M01 A3037 RMK AO2 T00001006

Get Your Daily Forecast Email!

Thanks for signing up!

Be on the lookout for a verification email in your inbox.

You'll start receiving the daily forecast at 8 AM.

×

10-Day Weather Forecast

Almanac

Astronomiya

Feb. 27, 2017 Rise Set
Actual Time
Civil Twilight
Nautical Twilight
Astronomical Twilight
Buwan
Length Of Visible Light
Haba ng Araw
Tomorrow will be .
, % of the Moon is Illuminated

Today's Extremes

State Highs State Lows

Community

WunderPhotos

Upload Photos

1,962,540 photos uploaded!

WunderBlog® & News

Nearby

Air Quality

  Air Quality AQ Index Pollutant
Not available.

Snow Depth

Station Depth Elevation

Earthquake Activity

Siyudad Distance Mag. Time & Date
Minimum magnitude displayed is 2.5.

Coastal Water Temperatures

lugar Temparatura

Stations

Nearby Weather Stations

Station Location Temp Windchill Hamog Humidito Hangin Precip. Elev Bago Type
                   

Watches & Warnings

There are currently no watches in effect.